sensor_id;sensor_type;location;lat;lon;timestamp;temperature;humidity
6964;DHT22;3522;50.856;7.278;2023-05-07T00:00:09;13.50;99.90
6964;DHT22;3522;50.856;7.278;2023-05-07T00:02:36;13.40;99.90
6964;DHT22;3522;50.856;7.278;2023-05-07T00:05:03;13.40;99.90
6964;DHT22;3522;50.856;7.278;2023-05-07T00:07:30;13.50;99.90
6964;DHT22;3522;50.856;7.278;2023-05-07T00:09:57;13.50;99.90
6964;DHT22;3522;50.856;7.278;2023-05-07T00:12:23;13.50;99.90
6964;DHT22;3522;50.856;7.278;2023-05-07T00:14:52;13.50;99.90
6964;DHT22;3522;50.856;7.278;2023-05-07T00:17:18;13.50;99.90
6964;DHT22;3522;50.856;7.278;2023-05-07T00:19:45;13.60;99.90
6964;DHT22;3522;50.856;7.278;2023-05-07T00:22:11;13.50;99.90
6964;DHT22;3522;50.856;7.278;2023-05-07T00:24:38;13.60;99.90
6964;DHT22;3522;50.856;7.278;2023-05-07T00:27:05;13.50;99.90
6964;DHT22;3522;50.856;7.278;2023-05-07T00:29:31;13.40;99.90
6964;DHT22;3522;50.856;7.278;2023-05-07T00:31:59;13.40;99.90
6964;DHT22;3522;50.856;7.278;2023-05-07T00:34:26;13.40;99.90
6964;DHT22;3522;50.856;7.278;2023-05-07T00:36:52;13.40;99.90
6964;DHT22;3522;50.856;7.278;2023-05-07T00:39:19;13.30;99.90
6964;DHT22;3522;50.856;7.278;2023-05-07T00:41:45;13.40;99.90
6964;DHT22;3522;50.856;7.278;2023-05-07T00:44:12;13.30;99.90
6964;DHT22;3522;50.856;7.278;2023-05-07T00:46:39;13.30;99.90
6964;DHT22;3522;50.856;7.278;2023-05-07T00:49:07;13.40;99.90
6964;DHT22;3522;50.856;7.278;2023-05-07T00:51:34;13.40;99.90
6964;DHT22;3522;50.856;7.278;2023-05-07T00:54:01;13.40;99.90
6964;DHT22;3522;50.856;7.278;2023-05-07T00:56:28;13.40;99.90
6964;DHT22;3522;50.856;7.278;2023-05-07T00:58:54;13.40;99.90
6964;DHT22;3522;50.856;7.278;2023-05-07T01:01:21;13.40;99.90
6964;DHT22;3522;50.856;7.278;2023-05-07T01:03:48;13.30;99.90
6964;DHT22;3522;50.856;7.278;2023-05-07T01:06:16;13.30;99.90
6964;DHT22;3522;50.856;7.278;2023-05-07T01:08:43;13.20;99.90
6964;DHT22;3522;50.856;7.278;2023-05-07T01:11:10;13.10;99.90
6964;DHT22;3522;50.856;7.278;2023-05-07T01:13:37;13.10;99.90
6964;DHT22;3522;50.856;7.278;2023-05-07T01:16:04;13.00;99.90
6964;DHT22;3522;50.856;7.278;2023-05-07T01:18:31;13.00;99.90
6964;DHT22;3522;50.856;7.278;2023-05-07T01:20:58;12.90;99.90
6964;DHT22;3522;50.856;7.278;2023-05-07T01:23:26;13.00;99.90
6964;DHT22;3522;50.856;7.278;2023-05-07T01:25:53;13.00;99.90
6964;DHT22;3522;50.856;7.278;2023-05-07T01:28:20;13.00;99.90
6964;DHT22;3522;50.856;7.278;2023-05-07T01:30:48;13.00;99.90
6964;DHT22;3522;50.856;7.278;2023-05-07T01:33:16;13.10;99.90
6964;DHT22;3522;50.856;7.278;2023-05-07T01:35:45;13.10;99.90
6964;DHT22;3522;50.856;7.278;2023-05-07T01:38:13;13.10;99.90
6964;DHT22;3522;50.856;7.278;2023-05-07T01:40:42;13.20;99.90
6964;DHT22;3522;50.856;7.278;2023-05-07T01:43:09;13.20;99.90
6964;DHT22;3522;50.856;7.278;2023-05-07T01:45:35;13.10;99.90
6964;DHT22;3522;50.856;7.278;2023-05-07T01:48:02;13.10;99.90
6964;DHT22;3522;50.856;7.278;2023-05-07T01:50:29;13.10;99.90
6964;DHT22;3522;50.856;7.278;2023-05-07T01:52:57;13.10;99.90
6964;DHT22;3522;50.856;7.278;2023-05-07T01:55:23;13.20;99.90
6964;DHT22;3522;50.856;7.278;2023-05-07T01:57:51;13.20;99.90
6964;DHT22;3522;50.856;7.278;2023-05-07T02:00:18;13.20;99.90
6964;DHT22;3522;50.856;7.278;2023-05-07T02:02:45;13.20;99.90
6964;DHT22;3522;50.856;7.278;2023-05-07T02:05:11;13.30;99.90
6964;DHT22;3522;50.856;7.278;2023-05-07T02:07:38;13.30;99.90
6964;DHT22;3522;50.856;7.278;2023-05-07T02:10:05;13.30;99.90
6964;DHT22;3522;50.856;7.278;2023-05-07T02:12:32;13.30;99.90
6964;DHT22;3522;50.856;7.278;2023-05-07T02:14:59;13.30;99.90
6964;DHT22;3522;50.856;7.278;2023-05-07T02:17:26;13.30;99.90
6964;DHT22;3522;50.856;7.278;2023-05-07T02:19:53;13.30;99.90
6964;DHT22;3522;50.856;7.278;2023-05-07T02:22:19;13.20;99.90
6964;DHT22;3522;50.856;7.278;2023-05-07T02:24:46;13.30;99.90
6964;DHT22;3522;50.856;7.278;2023-05-07T02:27:12;13.30;99.90
6964;DHT22;3522;50.856;7.278;2023-05-07T02:29:39;13.30;99.90
6964;DHT22;3522;50.856;7.278;2023-05-07T02:32:07;13.30;99.90
6964;DHT22;3522;50.856;7.278;2023-05-07T02:34:33;13.30;99.90
6964;DHT22;3522;50.856;7.278;2023-05-07T02:37:00;13.30;99.90
6964;DHT22;3522;50.856;7.278;2023-05-07T02:39:26;13.30;99.90
6964;DHT22;3522;50.856;7.278;2023-05-07T02:41:53;13.40;99.90
6964;DHT22;3522;50.856;7.278;2023-05-07T02:44:20;13.40;99.90
6964;DHT22;3522;50.856;7.278;2023-05-07T02:46:46;13.40;99.90
6964;DHT22;3522;50.856;7.278;2023-05-07T02:49:14;13.40;99.90
6964;DHT22;3522;50.856;7.278;2023-05-07T02:51:41;13.40;99.90
6964;DHT22;3522;50.856;7.278;2023-05-07T02:54:07;13.40;99.90
6964;DHT22;3522;50.856;7.278;2023-05-07T02:56:34;13.40;99.90
6964;DHT22;3522;50.856;7.278;2023-05-07T02:59:00;13.40;99.90
6964;DHT22;3522;50.856;7.278;2023-05-07T03:01:27;13.40;99.90
6964;DHT22;3522;50.856;7.278;2023-05-07T03:03:53;13.40;99.90
6964;DHT22;3522;50.856;7.278;2023-05-07T03:06:22;13.40;99.90
6964;DHT22;3522;50.856;7.278;2023-05-07T03:08:48;13.30;99.90
6964;DHT22;3522;50.856;7.278;2023-05-07T03:11:15;13.30;99.90
6964;DHT22;3522;50.856;7.278;2023-05-07T03:13:41;13.20;99.90
6964;DHT22;3522;50.856;7.278;2023-05-07T03:16:08;13.20;99.90
6964;DHT22;3522;50.856;7.278;2023-05-07T03:18:34;13.20;99.90
6964;DHT22;3522;50.856;7.278;2023-05-07T03:21:01;13.20;99.90
6964;DHT22;3522;50.856;7.278;2023-05-07T03:23:29;13.20;99.90
6964;DHT22;3522;50.856;7.278;2023-05-07T03:25:55;13.20;99.90
6964;DHT22;3522;50.856;7.278;2023-05-07T03:28:22;13.20;99.90
6964;DHT22;3522;50.856;7.278;2023-05-07T03:30:48;13.20;99.90
6964;DHT22;3522;50.856;7.278;2023-05-07T03:33:15;13.20;99.90
6964;DHT22;3522;50.856;7.278;2023-05-07T03:35:42;13.20;99.90
6964;DHT22;3522;50.856;7.278;2023-05-07T03:38:09;13.20;99.90
6964;DHT22;3522;50.856;7.278;2023-05-07T03:40:36;13.10;99.90
6964;DHT22;3522;50.856;7.278;2023-05-07T03:43:03;13.10;99.90
6964;DHT22;3522;50.856;7.278;2023-05-07T03:45:30;13.10;99.90
6964;DHT22;3522;50.856;7.278;2023-05-07T03:47:56;13.10;99.90
6964;DHT22;3522;50.856;7.278;2023-05-07T03:50:23;13.10;99.90
6964;DHT22;3522;50.856;7.278;2023-05-07T03:52:49;13.00;99.90
6964;DHT22;3522;50.856;7.278;2023-05-07T03:55:18;13.00;99.90
6964;DHT22;3522;50.856;7.278;2023-05-07T03:57:46;13.00;99.90
6964;DHT22;3522;50.856;7.278;2023-05-07T04:00:13;13.10;99.90
6964;DHT22;3522;50.856;7.278;2023-05-07T04:02:40;13.10;99.90
6964;DHT22;3522;50.856;7.278;2023-05-07T04:05:07;13.10;99.90
6964;DHT22;3522;50.856;7.278;2023-05-07T04:07:33;13.10;99.90
6964;DHT22;3522;50.856;7.278;2023-05-07T04:10:00;13.10;99.90
6964;DHT22;3522;50.856;7.278;2023-05-07T04:12:27;13.10;99.90
6964;DHT22;3522;50.856;7.278;2023-05-07T04:14:55;13.10;99.90
6964;DHT22;3522;50.856;7.278;2023-05-07T04:17:22;13.20;99.90
6964;DHT22;3522;50.856;7.278;2023-05-07T04:19:48;13.20;99.90
6964;DHT22;3522;50.856;7.278;2023-05-07T04:22:15;13.20;99.90
6964;DHT22;3522;50.856;7.278;2023-05-07T04:24:41;13.30;99.90
6964;DHT22;3522;50.856;7.278;2023-05-07T04:27:08;13.30;99.90
6964;DHT22;3522;50.856;7.278;2023-05-07T04:29:34;13.30;99.90
6964;DHT22;3522;50.856;7.278;2023-05-07T04:32:02;13.30;99.90
6964;DHT22;3522;50.856;7.278;2023-05-07T04:34:29;13.40;99.90
6964;DHT22;3522;50.856;7.278;2023-05-07T04:36:57;13.40;99.90
6964;DHT22;3522;50.856;7.278;2023-05-07T04:39:23;13.40;99.90
6964;DHT22;3522;50.856;7.278;2023-05-07T04:41:50;13.30;99.90
6964;DHT22;3522;50.856;7.278;2023-05-07T04:44:16;13.30;99.90
6964;DHT22;3522;50.856;7.278;2023-05-07T04:46:43;13.40;99.90
6964;DHT22;3522;50.856;7.278;2023-05-07T04:49:11;13.40;99.90
6964;DHT22;3522;50.856;7.278;2023-05-07T04:51:38;13.40;99.90
6964;DHT22;3522;50.856;7.278;2023-05-07T04:54:07;13.40;99.90
6964;DHT22;3522;50.856;7.278;2023-05-07T04:56:34;13.40;99.90
6964;DHT22;3522;50.856;7.278;2023-05-07T04:59:01;13.50;99.90
6964;DHT22;3522;50.856;7.278;2023-05-07T05:01:27;13.50;99.90
6964;DHT22;3522;50.856;7.278;2023-05-07T05:03:54;13.50;99.90
6964;DHT22;3522;50.856;7.278;2023-05-07T05:06:22;13.50;99.90
6964;DHT22;3522;50.856;7.278;2023-05-07T05:08:48;13.60;99.90
6964;DHT22;3522;50.856;7.278;2023-05-07T05:11:15;13.70;99.90
6964;DHT22;3522;50.856;7.278;2023-05-07T05:13:42;13.70;99.90
6964;DHT22;3522;50.856;7.278;2023-05-07T05:16:08;13.80;99.90
6964;DHT22;3522;50.856;7.278;2023-05-07T05:18:35;13.90;99.90
6964;DHT22;3522;50.856;7.278;2023-05-07T05:21:01;13.90;99.90
6964;DHT22;3522;50.856;7.278;2023-05-07T05:23:29;13.90;99.90
6964;DHT22;3522;50.856;7.278;2023-05-07T05:25:56;13.90;99.90
6964;DHT22;3522;50.856;7.278;2023-05-07T05:28:23;13.90;99.90
6964;DHT22;3522;50.856;7.278;2023-05-07T05:30:50;14.00;99.90
6964;DHT22;3522;50.856;7.278;2023-05-07T05:33:17;14.00;99.90
6964;DHT22;3522;50.856;7.278;2023-05-07T05:35:43;14.10;99.90
6964;DHT22;3522;50.856;7.278;2023-05-07T05:38:10;14.20;99.90
6964;DHT22;3522;50.856;7.278;2023-05-07T05:40:38;14.20;99.90
6964;DHT22;3522;50.856;7.278;2023-05-07T05:43:05;14.30;99.90
6964;DHT22;3522;50.856;7.278;2023-05-07T05:45:31;14.50;99.90
6964;DHT22;3522;50.856;7.278;2023-05-07T05:47:58;14.50;99.90
6964;DHT22;3522;50.856;7.278;2023-05-07T05:50:25;14.70;99.90
6964;DHT22;3522;50.856;7.278;2023-05-07T05:52:51;14.80;99.90
6964;DHT22;3522;50.856;7.278;2023-05-07T05:55:18;14.90;99.90
6964;DHT22;3522;50.856;7.278;2023-05-07T05:57:46;15.00;99.90
6964;DHT22;3522;50.856;7.278;2023-05-07T06:00:13;15.10;99.90
6964;DHT22;3522;50.856;7.278;2023-05-07T06:02:40;15.20;99.90
6964;DHT22;3522;50.856;7.278;2023-05-07T06:05:08;15.20;99.90
6964;DHT22;3522;50.856;7.278;2023-05-07T06:07:34;15.30;99.90
6964;DHT22;3522;50.856;7.278;2023-05-07T06:10:03;15.30;99.90
6964;DHT22;3522;50.856;7.278;2023-05-07T06:12:29;15.40;99.90
6964;DHT22;3522;50.856;7.278;2023-05-07T06:14:57;15.40;99.90
6964;DHT22;3522;50.856;7.278;2023-05-07T06:17:24;15.40;99.90
6964;DHT22;3522;50.856;7.278;2023-05-07T06:19:51;15.50;99.90
6964;DHT22;3522;50.856;7.278;2023-05-07T06:22:17;15.50;99.90
6964;DHT22;3522;50.856;7.278;2023-05-07T06:24:44;15.50;99.90
6964;DHT22;3522;50.856;7.278;2023-05-07T06:27:11;15.60;99.90
6964;DHT22;3522;50.856;7.278;2023-05-07T06:29:38;15.70;99.90
6964;DHT22;3522;50.856;7.278;2023-05-07T06:32:09;15.80;99.90
6964;DHT22;3522;50.856;7.278;2023-05-07T06:34:35;15.80;99.90
6964;DHT22;3522;50.856;7.278;2023-05-07T06:37:02;15.80;99.90
6964;DHT22;3522;50.856;7.278;2023-05-07T06:39:29;15.90;99.90
6964;DHT22;3522;50.856;7.278;2023-05-07T06:41:55;15.90;99.90
6964;DHT22;3522;50.856;7.278;2023-05-07T06:44:22;16.00;99.90
6964;DHT22;3522;50.856;7.278;2023-05-07T06:46:48;16.10;99.90
6964;DHT22;3522;50.856;7.278;2023-05-07T06:49:16;16.20;99.90
6964;DHT22;3522;50.856;7.278;2023-05-07T06:51:43;16.20;99.90
6964;DHT22;3522;50.856;7.278;2023-05-07T06:54:09;16.40;99.90
6964;DHT22;3522;50.856;7.278;2023-05-07T06:56:36;16.50;99.90
6964;DHT22;3522;50.856;7.278;2023-05-07T06:59:03;16.60;99.90
6964;DHT22;3522;50.856;7.278;2023-05-07T07:01:29;16.70;99.90
6964;DHT22;3522;50.856;7.278;2023-05-07T07:03:56;16.90;99.90
6964;DHT22;3522;50.856;7.278;2023-05-07T07:06:24;17.00;99.90
6964;DHT22;3522;50.856;7.278;2023-05-07T07:08:50;17.10;99.90
6964;DHT22;3522;50.856;7.278;2023-05-07T07:11:17;17.20;99.90
6964;DHT22;3522;50.856;7.278;2023-05-07T07:13:43;17.50;99.90
6964;DHT22;3522;50.856;7.278;2023-05-07T07:16:10;17.60;99.90
6964;DHT22;3522;50.856;7.278;2023-05-07T07:18:37;17.60;99.90
6964;DHT22;3522;50.856;7.278;2023-05-07T07:21:04;17.70;99.90
6964;DHT22;3522;50.856;7.278;2023-05-07T07:23:32;17.90;99.90
6964;DHT22;3522;50.856;7.278;2023-05-07T07:25:59;18.10;99.90
6964;DHT22;3522;50.856;7.278;2023-05-07T07:28:25;18.20;99.90
6964;DHT22;3522;50.856;7.278;2023-05-07T07:30:52;18.50;99.90
6964;DHT22;3522;50.856;7.278;2023-05-07T07:33:18;18.70;99.90
6964;DHT22;3522;50.856;7.278;2023-05-07T07:35:45;18.90;99.90
6964;DHT22;3522;50.856;7.278;2023-05-07T07:38:12;19.00;99.90
6964;DHT22;3522;50.856;7.278;2023-05-07T07:40:39;18.90;99.90
6964;DHT22;3522;50.856;7.278;2023-05-07T07:43:06;18.90;99.90
6964;DHT22;3522;50.856;7.278;2023-05-07T07:45:33;19.10;99.90
6964;DHT22;3522;50.856;7.278;2023-05-07T07:48:00;19.00;99.90
6964;DHT22;3522;50.856;7.278;2023-05-07T07:50:26;19.20;99.90
6964;DHT22;3522;50.856;7.278;2023-05-07T07:52:53;19.10;99.90
6964;DHT22;3522;50.856;7.278;2023-05-07T07:55:20;19.00;99.90
6964;DHT22;3522;50.856;7.278;2023-05-07T07:57:49;19.00;99.90
6964;DHT22;3522;50.856;7.278;2023-05-07T08:00:16;18.90;99.90
6964;DHT22;3522;50.856;7.278;2023-05-07T08:02:42;18.90;99.90
6964;DHT22;3522;50.856;7.278;2023-05-07T08:05:09;19.00;99.90
6964;DHT22;3522;50.856;7.278;2023-05-07T08:07:36;19.00;99.90
6964;DHT22;3522;50.856;7.278;2023-05-07T08:10:02;19.10;99.90
6964;DHT22;3522;50.856;7.278;2023-05-07T08:12:29;19.30;99.90
6964;DHT22;3522;50.856;7.278;2023-05-07T08:14:57;19.50;99.90
6964;DHT22;3522;50.856;7.278;2023-05-07T08:17:23;19.50;99.90
6964;DHT22;3522;50.856;7.278;2023-05-07T08:19:50;19.40;99.90
6964;DHT22;3522;50.856;7.278;2023-05-07T08:22:16;19.40;99.90
6964;DHT22;3522;50.856;7.278;2023-05-07T08:24:43;19.50;99.90
6964;DHT22;3522;50.856;7.278;2023-05-07T08:27:11;19.60;99.90
6964;DHT22;3522;50.856;7.278;2023-05-07T08:29:37;19.70;99.90
6964;DHT22;3522;50.856;7.278;2023-05-07T08:32:05;19.90;99.90
6964;DHT22;3522;50.856;7.278;2023-05-07T08:34:31;19.90;99.90
6964;DHT22;3522;50.856;7.278;2023-05-07T08:36:58;20.00;99.90
6964;DHT22;3522;50.856;7.278;2023-05-07T08:39:25;19.90;99.90
6964;DHT22;3522;50.856;7.278;2023-05-07T08:41:51;19.90;99.90
6964;DHT22;3522;50.856;7.278;2023-05-07T08:44:21;19.90;99.90
6964;DHT22;3522;50.856;7.278;2023-05-07T08:46:48;19.90;99.90
6964;DHT22;3522;50.856;7.278;2023-05-07T08:49:20;19.90;99.90
6964;DHT22;3522;50.856;7.278;2023-05-07T08:51:47;19.90;99.90
6964;DHT22;3522;50.856;7.278;2023-05-07T08:54:15;20.00;99.90
6964;DHT22;3522;50.856;7.278;2023-05-07T08:56:43;20.10;99.90
6964;DHT22;3522;50.856;7.278;2023-05-07T08:59:09;20.10;99.90
6964;DHT22;3522;50.856;7.278;2023-05-07T09:01:36;20.30;99.90
6964;DHT22;3522;50.856;7.278;2023-05-07T09:04:04;20.30;99.90
6964;DHT22;3522;50.856;7.278;2023-05-07T09:06:32;20.60;99.90
6964;DHT22;3522;50.856;7.278;2023-05-07T09:08:58;20.70;99.90
6964;DHT22;3522;50.856;7.278;2023-05-07T09:11:27;21.10;99.90
6964;DHT22;3522;50.856;7.278;2023-05-07T09:13:53;21.50;99.90
6964;DHT22;3522;50.856;7.278;2023-05-07T09:16:20;21.90;99.90
6964;DHT22;3522;50.856;7.278;2023-05-07T09:18:48;22.50;99.90
6964;DHT22;3522;50.856;7.278;2023-05-07T09:21:17;22.90;99.90
6964;DHT22;3522;50.856;7.278;2023-05-07T09:23:45;23.30;99.90
6964;DHT22;3522;50.856;7.278;2023-05-07T09:26:11;23.50;99.90
6964;DHT22;3522;50.856;7.278;2023-05-07T09:28:38;23.90;99.90
6964;DHT22;3522;50.856;7.278;2023-05-07T09:31:06;24.40;99.90
6964;DHT22;3522;50.856;7.278;2023-05-07T09:33:32;24.70;99.90
6964;DHT22;3522;50.856;7.278;2023-05-07T09:36:01;24.80;99.90
6964;DHT22;3522;50.856;7.278;2023-05-07T09:38:28;25.10;99.90
6964;DHT22;3522;50.856;7.278;2023-05-07T09:41:02;24.90;99.90
6964;DHT22;3522;50.856;7.278;2023-05-07T09:43:31;24.50;99.90
6964;DHT22;3522;50.856;7.278;2023-05-07T09:45:58;24.10;99.90
6964;DHT22;3522;50.856;7.278;2023-05-07T09:48:25;24.00;99.90
6964;DHT22;3522;50.856;7.278;2023-05-07T09:50:52;23.80;99.90
6964;DHT22;3522;50.856;7.278;2023-05-07T09:53:21;23.80;99.90
6964;DHT22;3522;50.856;7.278;2023-05-07T09:55:48;24.10;99.90
6964;DHT22;3522;50.856;7.278;2023-05-07T09:58:17;24.10;99.90
6964;DHT22;3522;50.856;7.278;2023-05-07T10:00:44;24.00;99.90
6964;DHT22;3522;50.856;7.278;2023-05-07T10:03:11;24.10;99.90
6964;DHT22;3522;50.856;7.278;2023-05-07T10:05:39;24.20;99.90
6964;DHT22;3522;50.856;7.278;2023-05-07T10:08:06;24.50;99.90
6964;DHT22;3522;50.856;7.278;2023-05-07T10:10:33;24.80;99.90
6964;DHT22;3522;50.856;7.278;2023-05-07T10:13:00;24.90;99.90
6964;DHT22;3522;50.856;7.278;2023-05-07T10:15:32;25.10;99.90
6964;DHT22;3522;50.856;7.278;2023-05-07T10:17:58;25.40;99.90
6964;DHT22;3522;50.856;7.278;2023-05-07T10:20:25;25.60;99.90
6964;DHT22;3522;50.856;7.278;2023-05-07T10:22:52;25.20;99.90
6964;DHT22;3522;50.856;7.278;2023-05-07T10:25:20;24.80;99.90
6964;DHT22;3522;50.856;7.278;2023-05-07T10:27:47;24.40;99.90
6964;DHT22;3522;50.856;7.278;2023-05-07T10:30:16;24.20;99.90
6964;DHT22;3522;50.856;7.278;2023-05-07T10:32:48;24.20;99.90
6964;DHT22;3522;50.856;7.278;2023-05-07T10:35:16;24.30;99.90
6964;DHT22;3522;50.856;7.278;2023-05-07T10:37:44;24.60;99.90
6964;DHT22;3522;50.856;7.278;2023-05-07T10:40:11;24.80;99.90
6964;DHT22;3522;50.856;7.278;2023-05-07T10:42:38;25.20;99.90
6964;DHT22;3522;50.856;7.278;2023-05-07T10:45:11;25.70;99.90
6964;DHT22;3522;50.856;7.278;2023-05-07T10:47:45;26.10;99.90
6964;DHT22;3522;50.856;7.278;2023-05-07T10:50:32;26.30;99.80
6964;DHT22;3522;50.856;7.278;2023-05-07T10:55:48;26.40;99.50
6964;DHT22;3522;50.856;7.278;2023-05-07T10:58:24;26.30;98.90
6964;DHT22;3522;50.856;7.278;2023-05-07T11:00:55;26.00;97.70
6964;DHT22;3522;50.856;7.278;2023-05-07T11:03:22;25.70;98.10
6964;DHT22;3522;50.856;7.278;2023-05-07T11:05:54;25.60;98.40
6964;DHT22;3522;50.856;7.278;2023-05-07T11:11:16;25.20;98.50
6964;DHT22;3522;50.856;7.278;2023-05-07T11:13:43;25.00;99.60
6964;DHT22;3522;50.856;7.278;2023-05-07T11:16:16;24.80;99.90
6964;DHT22;3522;50.856;7.278;2023-05-07T11:18:47;24.60;99.50
6964;DHT22;3522;50.856;7.278;2023-05-07T11:21:17;24.50;99.90
6964;DHT22;3522;50.856;7.278;2023-05-07T11:23:58;24.80;99.90
6964;DHT22;3522;50.856;7.278;2023-05-07T11:26:25;24.90;99.60
6964;DHT22;3522;50.856;7.278;2023-05-07T11:28:52;25.20;99.20
6964;DHT22;3522;50.856;7.278;2023-05-07T11:31:22;25.10;97.30
6964;DHT22;3522;50.856;7.278;2023-05-07T11:33:49;24.80;98.50
6964;DHT22;3522;50.856;7.278;2023-05-07T11:36:18;24.80;99.20
6964;DHT22;3522;50.856;7.278;2023-05-07T11:38:45;24.40;99.90
6964;DHT22;3522;50.856;7.278;2023-05-07T11:41:11;24.10;99.70
6964;DHT22;3522;50.856;7.278;2023-05-07T11:43:40;24.10;99.90
6964;DHT22;3522;50.856;7.278;2023-05-07T11:46:19;24.00;99.90
6964;DHT22;3522;50.856;7.278;2023-05-07T11:48:46;23.80;99.90
6964;DHT22;3522;50.856;7.278;2023-05-07T11:51:12;23.70;99.90
6964;DHT22;3522;50.856;7.278;2023-05-07T11:53:41;23.50;99.90
6964;DHT22;3522;50.856;7.278;2023-05-07T11:56:09;23.40;99.90
6964;DHT22;3522;50.856;7.278;2023-05-07T11:58:36;23.20;99.90
6964;DHT22;3522;50.856;7.278;2023-05-07T12:01:02;23.20;99.90
6964;DHT22;3522;50.856;7.278;2023-05-07T12:03:29;23.20;99.90
6964;DHT22;3522;50.856;7.278;2023-05-07T12:05:55;23.20;99.90
6964;DHT22;3522;50.856;7.278;2023-05-07T12:08:22;23.30;99.90
6964;DHT22;3522;50.856;7.278;2023-05-07T12:10:50;23.40;99.90
6964;DHT22;3522;50.856;7.278;2023-05-07T12:13:18;23.60;99.90
6964;DHT22;3522;50.856;7.278;2023-05-07T12:15:44;23.80;99.90
6964;DHT22;3522;50.856;7.278;2023-05-07T12:18:11;24.00;99.60
6964;DHT22;3522;50.856;7.278;2023-05-07T12:20:38;24.20;99.90
6964;DHT22;3522;50.856;7.278;2023-05-07T12:23:05;24.10;97.50
6964;DHT22;3522;50.856;7.278;2023-05-07T12:25:31;24.20;98.30
6964;DHT22;3522;50.856;7.278;2023-05-07T12:28:01;24.00;97.80
6964;DHT22;3522;50.856;7.278;2023-05-07T12:30:27;23.80;97.70
6964;DHT22;3522;50.856;7.278;2023-05-07T12:32:54;23.70;98.30
6964;DHT22;3522;50.856;7.278;2023-05-07T12:35:26;23.80;99.90
6964;DHT22;3522;50.856;7.278;2023-05-07T12:37:54;23.70;99.30
6964;DHT22;3522;50.856;7.278;2023-05-07T12:40:21;23.70;98.30
6964;DHT22;3522;50.856;7.278;2023-05-07T12:42:47;23.60;99.50
6964;DHT22;3522;50.856;7.278;2023-05-07T12:45:20;23.40;99.90
6964;DHT22;3522;50.856;7.278;2023-05-07T12:47:47;23.10;99.90
6964;DHT22;3522;50.856;7.278;2023-05-07T12:50:13;22.90;99.90
6964;DHT22;3522;50.856;7.278;2023-05-07T12:52:40;22.60;99.90
6964;DHT22;3522;50.856;7.278;2023-05-07T12:55:07;22.40;99.90
6964;DHT22;3522;50.856;7.278;2023-05-07T12:57:37;22.20;99.90
6964;DHT22;3522;50.856;7.278;2023-05-07T13:00:05;22.10;99.90
6964;DHT22;3522;50.856;7.278;2023-05-07T13:02:33;22.00;99.90
6964;DHT22;3522;50.856;7.278;2023-05-07T13:05:01;21.90;99.90
6964;DHT22;3522;50.856;7.278;2023-05-07T13:07:27;21.90;99.90
6964;DHT22;3522;50.856;7.278;2023-05-07T13:09:54;21.90;99.90
6964;DHT22;3522;50.856;7.278;2023-05-07T13:12:20;21.90;99.90
6964;DHT22;3522;50.856;7.278;2023-05-07T13:14:47;21.90;99.90
6964;DHT22;3522;50.856;7.278;2023-05-07T13:17:13;21.90;99.90
6964;DHT22;3522;50.856;7.278;2023-05-07T13:19:41;21.90;99.90
6964;DHT22;3522;50.856;7.278;2023-05-07T13:22:08;21.90;99.90
6964;DHT22;3522;50.856;7.278;2023-05-07T13:24:34;22.00;99.90
6964;DHT22;3522;50.856;7.278;2023-05-07T13:27:01;22.20;99.90
6964;DHT22;3522;50.856;7.278;2023-05-07T13:29:28;22.30;99.90
6964;DHT22;3522;50.856;7.278;2023-05-07T13:31:56;22.40;99.90
6964;DHT22;3522;50.856;7.278;2023-05-07T13:34:22;22.50;99.90
6964;DHT22;3522;50.856;7.278;2023-05-07T13:36:50;22.50;99.90
6964;DHT22;3522;50.856;7.278;2023-05-07T13:39:17;22.50;99.90
6964;DHT22;3522;50.856;7.278;2023-05-07T13:41:44;22.50;99.90
6964;DHT22;3522;50.856;7.278;2023-05-07T13:44:10;22.50;99.90
6964;DHT22;3522;50.856;7.278;2023-05-07T13:46:37;22.60;99.90
6964;DHT22;3522;50.856;7.278;2023-05-07T13:49:03;22.60;99.90
6964;DHT22;3522;50.856;7.278;2023-05-07T13:51:30;22.50;99.90
6964;DHT22;3522;50.856;7.278;2023-05-07T13:53:58;22.60;99.90
6964;DHT22;3522;50.856;7.278;2023-05-07T13:56:25;22.50;99.90
6964;DHT22;3522;50.856;7.278;2023-05-07T13:58:51;22.60;99.90
6964;DHT22;3522;50.856;7.278;2023-05-07T14:01:18;22.60;99.90
6964;DHT22;3522;50.856;7.278;2023-05-07T14:03:44;22.70;99.90
6964;DHT22;3522;50.856;7.278;2023-05-07T14:06:11;22.80;99.90
6964;DHT22;3522;50.856;7.278;2023-05-07T14:08:37;22.90;99.90
6964;DHT22;3522;50.856;7.278;2023-05-07T14:11:05;22.70;99.90
6964;DHT22;3522;50.856;7.278;2023-05-07T14:13:32;22.60;99.90
6964;DHT22;3522;50.856;7.278;2023-05-07T14:15:59;22.60;99.90
6964;DHT22;3522;50.856;7.278;2023-05-07T14:18:26;22.50;99.90
6964;DHT22;3522;50.856;7.278;2023-05-07T14:20:54;22.50;99.90
6964;DHT22;3522;50.856;7.278;2023-05-07T14:23:20;22.50;99.90
6964;DHT22;3522;50.856;7.278;2023-05-07T14:25:51;22.30;99.90
6964;DHT22;3522;50.856;7.278;2023-05-07T14:28:19;22.30;99.90
6964;DHT22;3522;50.856;7.278;2023-05-07T14:30:46;22.20;99.90
6964;DHT22;3522;50.856;7.278;2023-05-07T14:33:13;22.30;99.90
6964;DHT22;3522;50.856;7.278;2023-05-07T14:35:39;22.40;99.90
6964;DHT22;3522;50.856;7.278;2023-05-07T14:38:06;22.50;99.90
6964;DHT22;3522;50.856;7.278;2023-05-07T14:40:32;22.70;99.90
6964;DHT22;3522;50.856;7.278;2023-05-07T14:42:59;22.80;99.90
6964;DHT22;3522;50.856;7.278;2023-05-07T14:45:27;22.80;99.90
6964;DHT22;3522;50.856;7.278;2023-05-07T14:47:53;22.80;99.90
6964;DHT22;3522;50.856;7.278;2023-05-07T14:50:20;22.60;99.90
6964;DHT22;3522;50.856;7.278;2023-05-07T14:52:47;22.60;99.90
6964;DHT22;3522;50.856;7.278;2023-05-07T14:55:13;22.40;99.90
6964;DHT22;3522;50.856;7.278;2023-05-07T14:57:40;22.00;99.90
6964;DHT22;3522;50.856;7.278;2023-05-07T15:00:07;21.60;99.90
6964;DHT22;3522;50.856;7.278;2023-05-07T15:02:36;21.40;99.90
6964;DHT22;3522;50.856;7.278;2023-05-07T15:05:02;21.20;99.90
6964;DHT22;3522;50.856;7.278;2023-05-07T15:07:29;21.00;99.90
6964;DHT22;3522;50.856;7.278;2023-05-07T15:09:57;20.90;99.90
6964;DHT22;3522;50.856;7.278;2023-05-07T15:12:24;20.80;99.90
6964;DHT22;3522;50.856;7.278;2023-05-07T15:14:50;20.70;99.90
6964;DHT22;3522;50.856;7.278;2023-05-07T15:17:17;20.50;99.90
6964;DHT22;3522;50.856;7.278;2023-05-07T15:19:45;20.40;99.90
6964;DHT22;3522;50.856;7.278;2023-05-07T15:22:11;20.30;99.90
6964;DHT22;3522;50.856;7.278;2023-05-07T15:24:38;20.00;99.90
6964;DHT22;3522;50.856;7.278;2023-05-07T15:27:05;19.80;99.90
6964;DHT22;3522;50.856;7.278;2023-05-07T15:29:31;19.70;99.90
6964;DHT22;3522;50.856;7.278;2023-05-07T15:31:58;19.60;99.90
6964;DHT22;3522;50.856;7.278;2023-05-07T15:34:24;19.50;99.90
6964;DHT22;3522;50.856;7.278;2023-05-07T15:36:52;19.40;99.90
6964;DHT22;3522;50.856;7.278;2023-05-07T15:39:19;19.30;99.90
6964;DHT22;3522;50.856;7.278;2023-05-07T15:41:45;19.30;99.90
6964;DHT22;3522;50.856;7.278;2023-05-07T15:44:12;19.10;99.90
6964;DHT22;3522;50.856;7.278;2023-05-07T15:46:39;19.00;99.90
6964;DHT22;3522;50.856;7.278;2023-05-07T15:49:05;18.90;99.90
6964;DHT22;3522;50.856;7.278;2023-05-07T15:51:33;18.80;99.90
6964;DHT22;3522;50.856;7.278;2023-05-07T15:54:04;18.70;99.90
6964;DHT22;3522;50.856;7.278;2023-05-07T15:56:31;18.60;99.90
6964;DHT22;3522;50.856;7.278;2023-05-07T16:02:07;18.50;99.90
6964;DHT22;3522;50.856;7.278;2023-05-07T16:05:01;18.50;99.90
6964;DHT22;3522;50.856;7.278;2023-05-07T16:07:28;18.50;99.90
6964;DHT22;3522;50.856;7.278;2023-05-07T16:12:58;18.30;99.90